KDNS/DNS METAR and TAF weather

Enter ICAO airport designator
Station Type Date Time Source
KDNS METAR 2018/04/21 11:35 UTC NOAA

KDNS 211135Z AUTO 08006KT 10SM OVC100 06/01 A3035 RMK AO2


Station Type Date Time Source
KDNS Decoded METAR 2018/04/21 11:35 UTC NOAA

Denison, IA, United States (KDNS) 41-59N 095-23W
Apr 21, 2018 - 07:35 AM EDT / 2018.04.21 1135 UTC
Wind: from the E (080 degrees) at 7 MPH (6 KT):0
Visibility: 10 mile(s):0
Sky conditions: overcast
Temperature: 42 F (6 C)
Dew Point: 33 F (1 C)
Relative Humidity: 70%
Pressure (altimeter): 30.35 in. Hg (1027 hPa)
ob: KDNS 211135Z AUTO 08006KT 10SM OVC100 06/01 A3035 RMK AO2
cycle: 11

Station Type Date Time Source
KDNS TAF UTC NOAA

Error!


Example: see airport list